Aviation Digital Data Service (ADDS)

Output produced by METARs form (1655 UTC 30 October 2020)
found at http://www.aviationweather.gov/metar/data/
 
KFLO 301653Z 36010KT 10SM FEW045 22/08 A3000 RMK AO2 SLP155 T02170083
KFLO 301124Z 3012/3112 28013G20KT P6SM SKC 
     FM301600 33012KT P6SM SKC 
     FM310100 36008KT P6SM SKC 
     FM311000 04007KT P6SM SKC